createdAt,value
2019-02-28T00:01:21.864Z,47.13
2019-02-28T00:03:52.095Z,47.23
2019-02-28T00:06:22.298Z,45.35
2019-02-28T00:08:53.643Z,47.75
2019-02-28T00:11:24.378Z,42.53
2019-02-28T00:13:55.999Z,43.70
2019-02-28T00:16:26.823Z,43.25
2019-02-28T00:18:57.093Z,37.65
2019-02-28T00:21:27.322Z,43.48
2019-02-28T00:23:57.555Z,46.95
2019-02-28T00:26:28.325Z,45.45
2019-02-28T00:29:00.517Z,47.00
2019-02-28T00:31:31.035Z,40.38
2019-02-28T00:34:04.294Z,38.08
2019-02-28T00:36:33.422Z,42.27
2019-02-28T00:39:04.217Z,43.10
2019-02-28T00:41:35.804Z,43.60
2019-02-28T00:44:06.425Z,41.80
2019-02-28T00:46:36.715Z,39.40
2019-02-28T00:49:06.931Z,45.05
2019-02-28T00:51:37.213Z,46.05
2019-02-28T00:54:08.564Z,43.42
2019-02-28T00:56:39.881Z,41.60
2019-02-28T00:59:10.141Z,45.60
2019-02-28T01:01:43.129Z,45.73
2019-02-28T01:04:13.821Z,42.27
2019-02-28T01:06:44.078Z,45.88
2019-02-28T01:09:14.786Z,40.55
2019-02-28T01:11:48.127Z,45.78
2019-02-28T01:14:18.688Z,41.92
2019-02-28T01:16:50.239Z,42.08
2019-02-28T01:19:20.801Z,43.58
2019-02-28T01:21:51.014Z,39.75
2019-02-28T01:24:21.246Z,42.65
2019-02-28T01:26:51.870Z,46.83
2019-02-28T01:29:22.124Z,46.37
2019-02-28T01:31:52.255Z,40.58
2019-02-28T01:34:22.454Z,36.15
2019-02-28T01:36:52.808Z,46.15
2019-02-28T01:39:23.011Z,42.27
2019-02-28T01:41:53.135Z,40.08
2019-02-28T01:44:23.730Z,39.25
2019-02-28T01:46:53.919Z,46.33
2019-02-28T01:49:26.006Z,41.42
2019-02-28T01:51:56.345Z,38.20
2019-02-28T01:54:27.722Z,40.43
2019-02-28T01:56:58.414Z,40.63
2019-02-28T01:59:28.603Z,45.70
2019-02-28T02:01:58.725Z,39.98
2019-02-28T02:04:28.925Z,41.08
2019-02-28T02:06:59.810Z,41.48
2019-02-28T02:09:30.926Z,42.55
2019-02-28T02:12:01.484Z,40.80
2019-02-28T02:14:32.130Z,43.10
2019-02-28T02:17:02.372Z,41.80
2019-02-28T02:19:32.969Z,39.53
2019-02-28T02:22:08.959Z,45.15
2019-02-28T02:24:35.384Z,41.70
2019-02-28T02:27:05.655Z,46.20
2019-02-28T02:29:36.407Z,41.08
2019-02-28T02:32:07.382Z,44.08
2019-02-28T02:34:37.575Z,38.15
2019-02-28T02:37:08.223Z,38.58
2019-02-28T02:39:38.359Z,39.70
2019-02-28T02:42:11.299Z,41.35
2019-02-28T02:44:40.381Z,44.23
2019-02-28T02:47:10.589Z,44.98
2019-02-28T02:49:40.735Z,43.17
2019-02-28T02:52:11.405Z,55.33
2019-02-28T02:54:41.598Z,45.92
2019-02-28T02:57:13.931Z,44.90
2019-02-28T02:59:43.561Z,45.05
2019-02-28T03:02:14.115Z,45.50
2019-02-28T03:04:44.748Z,50.28
2019-02-28T03:07:23.023Z,38.63
2019-02-28T03:09:47.201Z,45.88
2019-02-28T03:12:17.407Z,41.65
2019-02-28T03:14:48.702Z,48.75
2019-02-28T03:17:19.521Z,43.92
2019-02-28T03:19:49.770Z,42.15
2019-02-28T03:22:19.954Z,38.70
2019-02-28T03:24:51.008Z,41.20
2019-02-28T03:27:21.972Z,48.65
2019-02-28T03:29:52.502Z,43.23
2019-02-28T03:32:22.811Z,44.20
2019-02-28T03:34:57.789Z,45.38
2019-02-28T03:37:24.833Z,44.10
2019-02-28T03:40:02.664Z,40.55
2019-02-28T03:42:28.961Z,43.13
2019-02-28T03:44:59.049Z,44.55
2019-02-28T03:47:30.326Z,44.63
2019-02-28T03:50:00.550Z,45.08
2019-02-28T03:52:30.820Z,44.35
2019-02-28T03:55:03.375Z,44.80
2019-02-28T03:57:33.814Z,44.30
2019-02-28T04:00:06.024Z,42.40
2019-02-28T04:02:36.298Z,44.27
2019-02-28T04:05:07.889Z,46.15
2019-02-28T04:07:38.146Z,43.25
2019-02-28T04:10:10.444Z,45.12
2019-02-28T04:12:45.198Z,53.25
2019-02-28T04:15:17.256Z,44.70
2019-02-28T04:17:47.525Z,45.55
2019-02-28T04:20:17.699Z,42.62
2019-02-28T04:22:48.212Z,52.03
2019-02-28T04:25:23.031Z,53.73
2019-02-28T04:27:50.303Z,47.88
2019-02-28T04:30:20.507Z,48.68
2019-02-28T04:32:50.765Z,46.42
2019-02-28T04:35:24.276Z,51.98
2019-02-28T04:37:53.080Z,53.33
2019-02-28T04:40:24.000Z,55.28
2019-02-28T04:42:55.538Z,54.13
2019-02-28T04:45:26.442Z,51.02
2019-02-28T04:47:57.212Z,53.58
2019-02-28T04:50:31.234Z,54.60
2019-02-28T04:52:59.249Z,52.33
2019-02-28T04:55:30.646Z,54.48
2019-02-28T04:58:01.356Z,57.20
2019-02-28T05:00:31.550Z,53.13
2019-02-28T05:03:01.762Z,56.92
2019-02-28T05:05:31.957Z,61.45
2019-02-28T05:08:05.786Z,60.12
2019-02-28T05:10:34.028Z,73.47
2019-02-28T05:13:04.316Z,72.32
2019-02-28T05:15:37.401Z,69.53
2019-02-28T05:18:06.327Z,70.87
2019-02-28T05:20:36.610Z,70.15
2019-02-28T05:23:06.817Z,75.25
2019-02-28T05:25:37.462Z,71.87
2019-02-28T05:28:07.725Z,70.85
2019-02-28T05:30:37.941Z,61.53
2019-02-28T05:33:08.454Z,63.00
2019-02-28T05:35:38.658Z,60.03
2019-02-28T05:38:09.270Z,66.57
2019-02-28T05:40:41.331Z,69.92
2019-02-28T05:43:12.060Z,67.10
2019-02-28T05:45:42.689Z,59.10
2019-02-28T05:48:12.897Z,54.33
2019-02-28T05:50:43.172Z,59.45
2019-02-28T05:53:13.455Z,52.78
2019-02-28T05:55:43.663Z,56.23
2019-02-28T05:58:17.578Z,58.78
2019-02-28T06:00:45.727Z,53.20
2019-02-28T06:03:16.190Z,48.60
2019-02-28T06:05:47.116Z,60.15
2019-02-28T06:08:17.223Z,44.98
2019-02-28T06:10:47.775Z,64.07
2019-02-28T06:13:18.308Z,69.20
2019-02-28T06:15:49.451Z,61.23
2019-02-28T06:18:19.657Z,66.17
2019-02-28T06:20:51.439Z,64.03
2019-02-28T06:23:22.155Z,65.78
2019-02-28T06:25:52.353Z,64.30
2019-02-28T06:28:22.566Z,76.02
2019-02-28T06:30:53.131Z,78.80
2019-02-28T06:33:23.362Z,69.15
2019-02-28T06:35:54.452Z,73.67
2019-02-28T06:38:24.891Z,67.80
2019-02-28T06:40:55.112Z,68.62
2019-02-28T06:43:25.275Z,70.72
2019-02-28T06:45:55.501Z,69.62
2019-02-28T06:48:26.643Z,66.45
2019-02-28T06:50:57.002Z,63.23
2019-02-28T06:53:30.757Z,69.07
2019-02-28T06:56:00.328Z,68.95
2019-02-28T06:58:33.227Z,67.20
2019-02-28T07:01:02.354Z,70.90
2019-02-28T07:03:35.142Z,72.50
2019-02-28T07:06:04.360Z,64.45
2019-02-28T07:08:34.563Z,78.33
2019-02-28T07:11:04.814Z,80.32
2019-02-28T07:13:39.008Z,79.50
2019-02-28T07:16:06.861Z,87.10
2019-02-28T07:18:37.131Z,82.12
2019-02-28T07:21:08.626Z,77.87
2019-02-28T07:23:38.971Z,81.00
2019-02-28T07:26:09.195Z,99.55
2019-02-28T07:28:39.399Z,88.65
2019-02-28T07:31:09.637Z,101.97
2019-02-28T07:33:41.249Z,98.87
2019-02-28T07:36:12.114Z,86.82
2019-02-28T07:38:42.311Z,90.47
2019-02-28T07:41:12.426Z,91.82
2019-02-28T07:43:45.918Z,89.30
2019-02-28T07:46:14.440Z,79.17
2019-02-28T07:48:44.663Z,73.83
2019-02-28T07:51:14.871Z,85.53
2019-02-28T07:53:45.150Z,83.97
2019-02-28T07:56:15.319Z,83.85
2019-02-28T07:58:45.846Z,79.97
2019-02-28T08:01:18.421Z,80.83
2019-02-28T08:03:48.714Z,82.27
2019-02-28T08:06:19.420Z,82.85
2019-02-28T08:08:49.600Z,83.30
2019-02-28T08:11:20.613Z,88.42
2019-02-28T08:13:51.071Z,80.95
2019-02-28T08:16:21.345Z,86.50
2019-02-28T08:18:52.435Z,91.90
2019-02-28T08:21:23.271Z,88.25
2019-02-28T08:23:53.552Z,83.95
2019-02-28T08:26:23.776Z,93.45
2019-02-28T08:28:53.965Z,91.42
2019-02-28T08:31:24.083Z,85.60
2019-02-28T08:33:54.355Z,79.17
2019-02-28T08:36:24.676Z,80.07
2019-02-28T08:38:55.236Z,69.65
2019-02-28T08:41:26.394Z,85.47
2019-02-28T08:43:56.674Z,90.10
2019-02-28T08:46:26.986Z,72.95
2019-02-28T08:48:57.176Z,76.22
2019-02-28T08:51:27.816Z,69.75
2019-02-28T08:53:59.546Z,75.60
2019-02-28T08:56:32.076Z,70.25
2019-02-28T08:59:11.370Z,69.72
2019-02-28T09:01:34.411Z,65.72
2019-02-28T09:04:05.731Z,75.12
2019-02-28T09:06:37.818Z,67.95
2019-02-28T09:09:10.215Z,70.00
2019-02-28T09:11:40.583Z,59.17
2019-02-28T09:14:10.804Z,64.40
2019-02-28T09:16:40.997Z,66.15
2019-02-28T09:19:11.488Z,62.98
2019-02-28T09:21:42.800Z,67.67
2019-02-28T09:24:13.658Z,62.65
2019-02-28T09:26:46.161Z,63.52
2019-02-28T09:29:18.351Z,54.88
2019-02-28T09:31:49.058Z,51.75
2019-02-28T09:34:19.328Z,44.88
2019-02-28T09:36:55.455Z,41.45
2019-02-28T09:39:21.462Z,48.40
2019-02-28T09:41:51.702Z,48.78
2019-02-28T09:44:21.988Z,46.37
2019-02-28T09:46:52.186Z,47.58
2019-02-28T09:49:22.387Z,49.77
2019-02-28T09:51:52.599Z,52.70
2019-02-28T09:54:24.375Z,54.80
2019-02-28T09:56:54.644Z,55.03
2019-02-28T09:59:24.890Z,59.15
2019-02-28T10:02:01.361Z,62.13
2019-02-28T10:04:30.347Z,65.92
2019-02-28T10:06:59.540Z,67.78
2019-02-28T10:09:29.807Z,77.35
2019-02-28T10:11:59.983Z,68.62
2019-02-28T10:14:30.196Z,63.52
2019-02-28T10:17:00.415Z,70.30
2019-02-28T10:19:30.675Z,69.47
2019-02-28T10:22:00.890Z,67.27
2019-02-28T10:24:32.366Z,61.05
2019-02-28T10:27:03.489Z,59.42
2019-02-28T10:29:34.322Z,55.98
2019-02-28T10:32:06.170Z,62.75
2019-02-28T10:34:36.378Z,66.95
2019-02-28T10:37:06.625Z,63.85
2019-02-28T10:39:36.816Z,55.25
2019-02-28T10:42:07.459Z,65.80
2019-02-28T10:44:37.718Z,62.30
2019-02-28T10:47:07.999Z,64.00
2019-02-28T10:49:38.742Z,41.77
2019-02-28T10:52:09.008Z,54.10
2019-02-28T10:54:39.294Z,55.67
2019-02-28T10:57:09.922Z,56.60
2019-02-28T10:59:40.195Z,41.00
2019-02-28T11:02:13.518Z,47.65
2019-02-28T11:04:43.906Z,39.13
2019-02-28T11:07:14.263Z,49.42
2019-02-28T11:09:44.846Z,39.20
2019-02-28T11:12:19.746Z,60.45
2019-02-28T11:14:46.919Z,63.70
2019-02-28T11:17:17.615Z,68.78
2019-02-28T11:19:48.516Z,76.20
2019-02-28T11:22:20.216Z,78.20
2019-02-28T11:24:50.914Z,79.77
2019-02-28T11:27:22.968Z,82.40
2019-02-28T11:29:53.112Z,88.42
2019-02-28T11:32:26.398Z,83.55
2019-02-28T11:34:55.505Z,85.53
2019-02-28T11:37:25.876Z,85.03
2019-02-28T11:39:56.600Z,85.57
2019-02-28T11:42:31.138Z,84.30
2019-02-28T11:45:00.961Z,99.17
2019-02-28T11:47:31.755Z,94.85
2019-02-28T11:50:04.649Z,87.88
2019-02-28T11:52:34.281Z,95.05
2019-02-28T11:55:07.028Z,102.50
2019-02-28T11:57:41.222Z,103.20
2019-02-28T12:00:19.825Z,97.10
2019-02-28T12:02:53.287Z,98.35
2019-02-28T12:05:22.466Z,98.72
2019-02-28T12:07:52.768Z,107.72
2019-02-28T12:10:23.084Z,101.45
2019-02-28T12:12:53.335Z,97.15
2019-02-28T12:15:31.969Z,95.50
2019-02-28T12:18:04.730Z,99.17
2019-02-28T12:20:35.173Z,95.80
2019-02-28T12:23:05.382Z,93.97
2019-02-28T12:25:35.642Z,93.33
2019-02-28T12:28:06.883Z,93.80
2019-02-28T12:30:37.340Z,96.47
2019-02-28T12:33:07.607Z,90.92
2019-02-28T12:35:40.538Z,95.87
2019-02-28T12:38:09.707Z,93.25
2019-02-28T12:40:42.502Z,92.27
2019-02-28T12:43:14.566Z,88.97
2019-02-28T12:45:48.335Z,100.25
2019-02-28T12:48:18.994Z,92.57
2019-02-28T12:50:49.245Z,94.70
2019-02-28T12:53:24.279Z,99.25
2019-02-28T12:55:51.537Z,91.90
2019-02-28T12:58:22.562Z,101.40
2019-02-28T13:00:56.394Z,100.27
2019-02-28T13:03:24.907Z,90.25
2019-02-28T13:05:55.618Z,107.97
2019-02-28T13:08:25.971Z,92.55
2019-02-28T13:11:03.145Z,100.50
2019-02-28T13:13:28.972Z,99.28
2019-02-28T13:15:59.911Z,101.72
2019-02-28T13:18:30.240Z,91.00
2019-02-28T13:21:00.407Z,93.52
2019-02-28T13:23:32.912Z,100.70
2019-02-28T13:26:02.688Z,99.72
2019-02-28T13:28:34.290Z,93.95
2019-02-28T13:31:04.958Z,99.13
2019-02-28T13:33:35.288Z,100.05
2019-02-28T13:36:05.575Z,97.35
2019-02-28T13:38:37.229Z,98.00
2019-02-28T13:41:07.493Z,106.58
2019-02-28T13:43:37.707Z,99.42
2019-02-28T13:46:07.870Z,93.47
2019-02-28T13:48:38.066Z,102.87
2019-02-28T13:51:08.810Z,103.53
2019-02-28T13:53:40.721Z,110.65
2019-02-28T13:56:10.981Z,106.30
2019-02-28T13:58:41.277Z,102.20
2019-02-28T14:01:11.596Z,109.25
2019-02-28T14:03:42.254Z,103.22
2019-02-28T14:06:18.906Z,97.70
2019-02-28T14:08:45.893Z,101.02
2019-02-28T14:11:18.595Z,104.00
2019-02-28T14:13:48.802Z,106.83
2019-02-28T14:16:19.035Z,99.72
2019-02-28T14:18:49.134Z,97.62
2019-02-28T14:21:19.311Z,98.17
2019-02-28T14:23:52.400Z,87.00
2019-02-28T14:26:21.435Z,103.00
2019-02-28T14:28:51.976Z,110.88
2019-02-28T14:31:23.470Z,104.30
2019-02-28T14:36:57.605Z,107.58
2019-02-28T14:39:27.872Z,108.17
2019-02-28T14:41:58.122Z,100.33
2019-02-28T14:44:31.750Z,97.05
2019-02-28T14:47:00.255Z,101.53
2019-02-28T14:49:30.455Z,110.17
2019-02-28T14:52:03.631Z,98.00
2019-02-28T14:54:32.883Z,106.15
2019-02-28T14:57:03.044Z,105.92
2019-02-28T14:59:33.207Z,107.27
2019-02-28T15:02:03.512Z,108.35
2019-02-28T15:04:33.705Z,99.70
2019-02-28T15:07:04.398Z,107.30
2019-02-28T15:09:35.869Z,100.40
2019-02-28T15:12:06.022Z,107.20
2019-02-28T15:14:36.633Z,105.17
2019-02-28T15:17:07.643Z,107.32
2019-02-28T15:19:38.415Z,112.85
2019-02-28T15:22:08.667Z,104.87
2019-02-28T15:24:40.490Z,95.90
2019-02-28T15:27:11.456Z,98.85
2019-02-28T15:29:42.907Z,98.97
2019-02-28T15:32:14.289Z,104.92
2019-02-28T15:34:45.123Z,100.80
2019-02-28T15:37:15.586Z,97.33
2019-02-28T15:39:46.027Z,103.95
2019-02-28T15:42:16.634Z,99.00
2019-02-28T15:44:46.793Z,99.15
2019-02-28T15:47:19.479Z,106.37
2019-02-28T15:49:48.950Z,104.85
2019-02-28T15:52:19.189Z,101.45
2019-02-28T15:54:49.205Z,104.83
2019-02-28T15:57:19.766Z,99.72
2019-02-28T15:59:50.491Z,96.78
2019-02-28T16:02:20.862Z,104.92
2019-02-28T16:04:51.101Z,107.67
2019-02-28T16:07:21.311Z,109.75
2019-02-28T16:09:54.137Z,106.43
2019-02-28T16:12:23.214Z,108.78
2019-02-28T16:14:53.734Z,101.92
2019-02-28T16:17:23.819Z,111.83
2019-02-28T16:19:56.201Z,119.87
2019-02-28T16:22:26.141Z,113.55
2019-02-28T16:24:56.350Z,116.03
2019-02-28T16:27:29.592Z,114.20
2019-02-28T16:29:58.660Z,122.37
2019-02-28T16:32:30.002Z,129.03
2019-02-28T16:35:00.440Z,123.90
2019-02-28T16:37:32.328Z,117.45
2019-02-28T16:40:03.073Z,121.72
2019-02-28T16:42:34.319Z,122.75
2019-02-28T16:45:07.438Z,126.38
2019-02-28T16:47:37.519Z,118.05
2019-02-28T16:50:10.378Z,124.20
2019-02-28T16:52:40.710Z,122.33
2019-02-28T16:55:11.908Z,119.85
2019-02-28T16:57:43.560Z,118.77
2019-02-28T17:00:15.931Z,112.47
2019-02-28T17:02:46.250Z,123.72
2019-02-28T17:05:16.483Z,120.13
2019-02-28T17:07:47.031Z,128.32
2019-02-28T17:10:25.217Z,116.17
2019-02-28T17:13:12.421Z,114.65
2019-02-28T17:16:02.626Z,112.62
2019-02-28T17:18:34.615Z,111.42
2019-02-28T17:21:05.358Z,124.38
2019-02-28T17:23:36.887Z,114.32
2019-02-28T17:26:07.963Z,117.05
2019-02-28T17:28:46.547Z,114.37
2019-02-28T17:31:37.713Z,112.10
2019-02-28T17:34:08.550Z,118.80
2019-02-28T17:36:38.748Z,113.57
2019-02-28T17:39:11.406Z,120.62
2019-02-28T17:41:41.934Z,108.63
2019-02-28T17:44:27.719Z,109.32
2019-02-28T17:47:06.955Z,118.25
2019-02-28T17:49:59.985Z,128.60
2019-02-28T17:52:43.678Z,112.83
2019-02-28T17:55:41.022Z,115.95
2019-02-28T17:58:20.198Z,112.03
2019-02-28T18:01:05.237Z,124.95
2019-02-28T18:03:53.398Z,104.60
2019-02-28T18:06:56.815Z,126.82
2019-02-28T18:09:48.407Z,118.28
2019-02-28T18:12:50.035Z,119.72
2019-02-28T18:15:25.960Z,119.82
2019-02-28T18:18:29.697Z,115.25
2019-02-28T18:21:12.354Z,122.33
2019-02-28T18:24:12.575Z,114.30
2019-02-28T18:26:50.906Z,116.85
2019-02-28T18:29:46.627Z,112.45
2019-02-28T18:32:16.804Z,113.72
2019-02-28T18:34:46.950Z,110.45
2019-02-28T18:37:17.234Z,113.50
2019-02-28T18:39:48.344Z,111.12
2019-02-28T18:42:20.027Z,107.15
2019-02-28T18:44:50.419Z,121.42
2019-02-28T18:47:20.637Z,114.52
2019-02-28T18:49:51.218Z,126.30
2019-02-28T18:52:21.730Z,117.42
2019-02-28T18:54:51.814Z,120.95
2019-02-28T18:57:22.293Z,115.52
2019-02-28T18:59:52.774Z,113.20
2019-02-28T19:02:22.920Z,116.28
2019-02-28T19:04:53.174Z,113.77
2019-02-28T19:07:23.267Z,122.87
2019-02-28T19:09:53.519Z,113.50
2019-02-28T19:12:24.147Z,114.70
2019-02-28T19:14:54.659Z,115.47
2019-02-28T19:17:24.893Z,119.15
2019-02-28T19:19:55.115Z,110.22
2019-02-28T19:22:25.190Z,110.03
2019-02-28T19:24:55.365Z,122.15
2019-02-28T19:27:25.888Z,120.90
2019-02-28T19:29:56.106Z,116.15
2019-02-28T19:32:26.215Z,120.55
2019-02-28T19:34:56.440Z,115.17
2019-02-28T19:37:26.598Z,114.30
2019-02-28T19:39:56.818Z,118.25
2019-02-28T19:42:26.989Z,114.32
2019-02-28T19:44:57.001Z,119.05
2019-02-28T19:47:27.555Z,116.00
2019-02-28T19:49:57.645Z,107.40
2019-02-28T19:52:27.791Z,112.95
2019-02-28T19:54:57.947Z,118.97
2019-02-28T19:57:28.397Z,114.17
2019-02-28T19:59:58.495Z,117.60
2019-02-28T20:02:28.709Z,112.52
2019-02-28T20:04:58.854Z,120.33
2019-02-28T20:07:29.313Z,127.38
2019-02-28T20:09:59.754Z,118.02
2019-02-28T20:12:31.155Z,119.28
2019-02-28T20:15:01.596Z,121.62
2019-02-28T20:17:32.470Z,111.50
2019-02-28T20:20:02.758Z,117.30
2019-02-28T20:22:35.160Z,117.57
2019-02-28T20:25:10.108Z,111.55
2019-02-28T20:27:40.173Z,120.17
2019-02-28T20:30:13.645Z,114.55
2019-02-28T20:32:44.240Z,125.05
2019-02-28T20:35:14.945Z,119.28
2019-02-28T20:37:45.408Z,117.50
2019-02-28T20:40:30.273Z,124.27
2019-02-28T20:43:00.487Z,117.55
2019-02-28T20:45:30.588Z,115.57
2019-02-28T20:48:00.765Z,122.45
2019-02-28T20:50:36.683Z,128.35
2019-02-28T20:53:07.021Z,120.25
2019-02-28T20:55:37.247Z,124.38
2019-02-28T20:58:07.478Z,121.30
2019-02-28T21:00:37.711Z,122.20
2019-02-28T21:03:08.203Z,116.57
2019-02-28T21:05:38.367Z,116.53
2019-02-28T21:08:08.959Z,124.40
2019-02-28T21:10:39.183Z,120.65
2019-02-28T21:13:09.400Z,125.02
2019-02-28T21:15:39.607Z,112.62
2019-02-28T21:18:10.259Z,119.00
2019-02-28T21:20:42.295Z,123.82
2019-02-28T21:23:12.310Z,119.40
2019-02-28T21:25:42.555Z,126.02
2019-02-28T21:28:12.815Z,129.68
2019-02-28T21:30:42.976Z,127.17
2019-02-28T21:33:13.145Z,125.80
2019-02-28T21:35:43.568Z,118.85
2019-02-28T21:38:14.181Z,117.62
2019-02-28T21:40:44.531Z,115.80
2019-02-28T21:43:14.767Z,116.25
2019-02-28T21:45:45.018Z,118.85
2019-02-28T21:48:15.190Z,125.82
2019-02-28T21:50:45.609Z,123.35
2019-02-28T21:53:15.824Z,122.05
2019-02-28T21:55:46.038Z,121.45
2019-02-28T21:58:16.121Z,140.40
2019-02-28T22:00:46.418Z,149.15
2019-02-28T22:03:16.515Z,145.45
2019-02-28T22:05:46.595Z,138.72
2019-02-28T22:08:17.053Z,143.50
2019-02-28T22:10:47.060Z,141.28
2019-02-28T22:13:17.348Z,135.75
2019-02-28T22:15:47.514Z,116.37
2019-02-28T22:18:17.936Z,125.95
2019-02-28T22:20:49.289Z,131.47
2019-02-28T22:23:19.840Z,123.05
2019-02-28T22:25:49.924Z,130.65
2019-02-28T22:28:19.997Z,128.18
2019-02-28T22:30:51.735Z,124.53
2019-02-28T22:33:23.545Z,124.15
2019-02-28T22:35:55.296Z,118.10
2019-02-28T22:38:25.531Z,124.45
2019-02-28T22:40:56.245Z,119.80
2019-02-28T22:43:26.441Z,122.65
2019-02-28T22:45:57.613Z,120.67
2019-02-28T22:48:28.081Z,121.02
2019-02-28T22:50:58.141Z,120.62
2019-02-28T22:53:28.425Z,121.35
2019-02-28T22:55:59.391Z,119.10
2019-02-28T22:58:29.470Z,115.65
2019-02-28T23:01:07.168Z,122.30
2019-02-28T23:03:38.804Z,118.95
2019-02-28T23:06:08.955Z,113.20
2019-02-28T23:08:39.436Z,120.92
2019-02-28T23:11:09.905Z,113.30
2019-02-28T23:13:39.938Z,113.03
2019-02-28T23:16:10.365Z,119.70
2019-02-28T23:18:40.466Z,119.33
2019-02-28T23:21:10.668Z,115.72
2019-02-28T23:23:40.873Z,116.42
2019-02-28T23:26:12.835Z,111.25
2019-02-28T23:28:54.755Z,114.15
2019-02-28T23:31:46.029Z,106.60
2019-02-28T23:34:20.314Z,109.07
2019-02-28T23:36:50.932Z,114.65
2019-02-28T23:39:21.099Z,111.97
2019-02-28T23:41:51.183Z,109.48
2019-02-28T23:44:21.394Z,110.88
2019-02-28T23:46:51.824Z,117.65
2019-02-28T23:49:21.925Z,121.42
2019-02-28T23:51:52.374Z,113.40
2019-02-28T23:54:22.536Z,112.42
2019-02-28T23:56:53.801Z,104.70
2019-02-28T23:59:23.884Z,106.20
